sensor_id;sensor_type;location;lat;lon;timestamp;pressure;altitude;pressure_sealevel;temperature;humidity
77077;BME280;66003;52.286;104.306;2023-07-30T00:02:01;95524.75;;;31.77;36.50
77077;BME280;66003;52.286;104.306;2023-07-30T00:04:27;95543.06;;;31.26;38.08
77077;BME280;66003;52.286;104.306;2023-07-30T00:06:53;95569.66;;;30.84;39.05
77077;BME280;66003;52.286;104.306;2023-07-30T00:09:19;95576.47;;;30.43;40.58
77077;BME280;66003;52.286;104.306;2023-07-30T00:11:46;95579.72;;;30.19;40.12
77077;BME280;66003;52.286;104.306;2023-07-30T00:14:12;95563.66;;;29.94;40.85
77077;BME280;66003;52.286;104.306;2023-07-30T00:16:38;95564.75;;;29.76;41.15
77077;BME280;66003;52.286;104.306;2023-07-30T00:19:04;95570.97;;;29.61;41.19
77077;BME280;66003;52.286;104.306;2023-07-30T00:21:30;95602.16;;;29.54;41.57
77077;BME280;66003;52.286;104.306;2023-07-30T00:23:57;95627.31;;;29.56;42.67
77077;BME280;66003;52.286;104.306;2023-07-30T00:26:23;95606.59;;;29.48;43.05
77077;BME280;66003;52.286;104.306;2023-07-30T00:28:52;95617.63;;;29.48;42.10
77077;BME280;66003;52.286;104.306;2023-07-30T00:31:18;95630.28;;;29.42;42.69
77077;BME280;66003;52.286;104.306;2023-07-30T00:33:45;95610.16;;;29.22;43.60
77077;BME280;66003;52.286;104.306;2023-07-30T00:36:11;95574.50;;;28.88;43.81
77077;BME280;66003;52.286;104.306;2023-07-30T00:38:37;95513.75;;;28.21;45.21
77077;BME280;66003;52.286;104.306;2023-07-30T00:41:03;95546.28;;;27.92;46.20
77077;BME280;66003;52.286;104.306;2023-07-30T00:43:29;95545.91;;;27.56;48.60
77077;BME280;66003;52.286;104.306;2023-07-30T00:45:55;95530.06;;;27.30;48.38
77077;BME280;66003;52.286;104.306;2023-07-30T00:48:21;95584.81;;;27.00;49.23
77077;BME280;66003;52.286;104.306;2023-07-30T00:50:48;95579.72;;;26.98;49.81
77077;BME280;66003;52.286;104.306;2023-07-30T00:53:14;95577.69;;;27.06;50.36
77077;BME280;66003;52.286;104.306;2023-07-30T00:55:42;95586.28;;;27.52;49.31
77077;BME280;66003;52.286;104.306;2023-07-30T00:58:09;95593.50;;;28.14;48.66
77077;BME280;66003;52.286;104.306;2023-07-30T01:00:36;95582.91;;;28.77;47.04
77077;BME280;66003;52.286;104.306;2023-07-30T01:03:02;95576.22;;;29.52;45.75
77077;BME280;66003;52.286;104.306;2023-07-30T01:05:29;95581.94;;;30.07;44.65
77077;BME280;66003;52.286;104.306;2023-07-30T01:07:56;95593.00;;;30.43;43.34
77077;BME280;66003;52.286;104.306;2023-07-30T01:10:22;95619.50;;;30.77;43.35
77077;BME280;66003;52.286;104.306;2023-07-30T01:12:49;95616.31;;;30.95;42.69
77077;BME280;66003;52.286;104.306;2023-07-30T01:15:16;95609.84;;;30.85;43.26
77077;BME280;66003;52.286;104.306;2023-07-30T01:17:43;95601.56;;;30.85;42.56
77077;BME280;66003;52.286;104.306;2023-07-30T01:20:10;95599.56;;;30.49;43.45
77077;BME280;66003;52.286;104.306;2023-07-30T01:22:36;95620.31;;;30.18;43.65
77077;BME280;66003;52.286;104.306;2023-07-30T01:25:03;95630.69;;;29.87;44.92
77077;BME280;66003;52.286;104.306;2023-07-30T01:27:36;95620.41;;;29.68;46.13
77077;BME280;66003;52.286;104.306;2023-07-30T01:32:41;95607.94;;;29.83;43.82
77077;BME280;66003;52.286;104.306;2023-07-30T01:35:08;95604.97;;;29.00;47.81
77077;BME280;66003;52.286;104.306;2023-07-30T01:37:37;95595.56;;;28.41;48.56
77077;BME280;66003;52.286;104.306;2023-07-30T01:40:06;95606.31;;;27.94;51.14
77077;BME280;66003;52.286;104.306;2023-07-30T01:42:32;95580.66;;;27.70;51.47
77077;BME280;66003;52.286;104.306;2023-07-30T01:44:58;95527.31;;;27.30;52.38
77077;BME280;66003;52.286;104.306;2023-07-30T01:47:24;95493.91;;;26.98;53.65
77077;BME280;66003;52.286;104.306;2023-07-30T01:49:50;95469.50;;;26.62;53.80
77077;BME280;66003;52.286;104.306;2023-07-30T01:52:16;95494.34;;;26.37;55.34
77077;BME280;66003;52.286;104.306;2023-07-30T01:54:42;95521.97;;;26.60;53.68
77077;BME280;66003;52.286;104.306;2023-07-30T01:57:09;95560.34;;;26.60;54.09
77077;BME280;66003;52.286;104.306;2023-07-30T01:59:35;95578.63;;;26.81;53.43
77077;BME280;66003;52.286;104.306;2023-07-30T02:02:01;95567.41;;;27.17;53.09
77077;BME280;66003;52.286;104.306;2023-07-30T02:04:27;95590.78;;;27.77;51.66
77077;BME280;66003;52.286;104.306;2023-07-30T02:06:53;95602.78;;;28.58;49.85
77077;BME280;66003;52.286;104.306;2023-07-30T02:09:19;95597.03;;;29.99;47.46
77077;BME280;66003;52.286;104.306;2023-07-30T02:11:47;95616.06;;;32.03;44.42
77077;BME280;66003;52.286;104.306;2023-07-30T02:14:13;95614.75;;;34.01;39.83
77077;BME280;66003;52.286;104.306;2023-07-30T02:16:39;95619.59;;;35.86;36.91
77077;BME280;66003;52.286;104.306;2023-07-30T02:19:06;95624.66;;;37.63;33.38
77077;BME280;66003;52.286;104.306;2023-07-30T02:21:32;95629.50;;;39.08;31.19
77077;BME280;66003;52.286;104.306;2023-07-30T02:24:01;95645.59;;;39.97;29.74
77077;BME280;66003;52.286;104.306;2023-07-30T02:26:28;95640.38;;;40.71;28.79
77077;BME280;66003;52.286;104.306;2023-07-30T02:28:54;95641.66;;;41.28;28.03
77077;BME280;66003;52.286;104.306;2023-07-30T02:31:20;95625.28;;;42.06;26.55
77077;BME280;66003;52.286;104.306;2023-07-30T02:33:46;95627.06;;;42.96;25.99
77077;BME280;66003;52.286;104.306;2023-07-30T02:36:13;95629.63;;;43.50;24.95
77077;BME280;66003;52.286;104.306;2023-07-30T02:38:39;95629.59;;;43.78;24.31
77077;BME280;66003;52.286;104.306;2023-07-30T02:41:05;95633.38;;;43.91;24.23
77077;BME280;66003;52.286;104.306;2023-07-30T02:43:31;95629.13;;;43.51;24.48
77077;BME280;66003;52.286;104.306;2023-07-30T02:45:57;95634.75;;;43.01;25.06
77077;BME280;66003;52.286;104.306;2023-07-30T02:48:23;95644.81;;;42.37;25.43
77077;BME280;66003;52.286;104.306;2023-07-30T02:50:49;95642.94;;;41.64;26.83
77077;BME280;66003;52.286;104.306;2023-07-30T02:53:15;95643.50;;;41.10;27.92
77077;BME280;66003;52.286;104.306;2023-07-30T02:55:41;95641.63;;;40.70;27.66
77077;BME280;66003;52.286;104.306;2023-07-30T02:58:08;95633.81;;;40.54;27.82
77077;BME280;66003;52.286;104.306;2023-07-30T03:00:34;95630.81;;;40.63;27.85
77077;BME280;66003;52.286;104.306;2023-07-30T03:03:00;95627.19;;;40.31;28.33
77077;BME280;66003;52.286;104.306;2023-07-30T03:05:26;95636.56;;;39.88;29.00
77077;BME280;66003;52.286;104.306;2023-07-30T03:07:53;95637.75;;;39.46;28.95
77077;BME280;66003;52.286;104.306;2023-07-30T03:10:19;95636.53;;;39.18;30.30
77077;BME280;66003;52.286;104.306;2023-07-30T03:12:45;95637.78;;;38.73;30.16
77077;BME280;66003;52.286;104.306;2023-07-30T03:15:11;95635.66;;;38.53;31.02
77077;BME280;66003;52.286;104.306;2023-07-30T03:17:37;95643.88;;;38.33;31.46
77077;BME280;66003;52.286;104.306;2023-07-30T03:20:04;95647.09;;;38.16;30.93
77077;BME280;66003;52.286;104.306;2023-07-30T03:22:31;95646.38;;;38.07;31.88
77077;BME280;66003;52.286;104.306;2023-07-30T03:24:57;95664.38;;;38.06;31.62
77077;BME280;66003;52.286;104.306;2023-07-30T03:27:23;95661.94;;;37.99;32.07
77077;BME280;66003;52.286;104.306;2023-07-30T03:29:49;95667.88;;;38.15;31.45
77077;BME280;66003;52.286;104.306;2023-07-30T03:32:15;95667.63;;;38.28;31.58
77077;BME280;66003;52.286;104.306;2023-07-30T03:34:41;95650.28;;;38.24;31.32
77077;BME280;66003;52.286;104.306;2023-07-30T03:37:07;95648.31;;;38.39;30.94
77077;BME280;66003;52.286;104.306;2023-07-30T03:39:33;95644.31;;;38.16;31.22
77077;BME280;66003;52.286;104.306;2023-07-30T03:42:00;95642.03;;;38.06;31.38
77077;BME280;66003;52.286;104.306;2023-07-30T03:44:26;95634.59;;;37.88;31.47
77077;BME280;66003;52.286;104.306;2023-07-30T03:46:53;95650.03;;;37.65;32.71
77077;BME280;66003;52.286;104.306;2023-07-30T03:49:19;95639.97;;;37.68;32.83
77077;BME280;66003;52.286;104.306;2023-07-30T03:51:45;95631.03;;;37.87;32.19
77077;BME280;66003;52.286;104.306;2023-07-30T03:54:11;95631.25;;;37.75;32.31
77077;BME280;66003;52.286;104.306;2023-07-30T03:56:37;95635.00;;;37.72;32.00
77077;BME280;66003;52.286;104.306;2023-07-30T03:59:03;95637.38;;;37.64;32.17
77077;BME280;66003;52.286;104.306;2023-07-30T04:01:29;95639.69;;;37.56;32.80
77077;BME280;66003;52.286;104.306;2023-07-30T04:03:56;95619.09;;;37.63;32.99
77077;BME280;66003;52.286;104.306;2023-07-30T04:06:22;95615.41;;;37.81;32.54
77077;BME280;66003;52.286;104.306;2023-07-30T04:08:48;95614.50;;;37.99;32.64
77077;BME280;66003;52.286;104.306;2023-07-30T04:11:14;95590.41;;;38.10;31.90
77077;BME280;66003;52.286;104.306;2023-07-30T04:13:41;95606.03;;;38.32;32.12
77077;BME280;66003;52.286;104.306;2023-07-30T04:16:08;95600.28;;;38.35;31.66
77077;BME280;66003;52.286;104.306;2023-07-30T04:18:34;95608.34;;;38.33;32.02
77077;BME280;66003;52.286;104.306;2023-07-30T04:21:00;95605.16;;;38.25;32.04
77077;BME280;66003;52.286;104.306;2023-07-30T04:23:26;95611.72;;;38.22;32.24
77077;BME280;66003;52.286;104.306;2023-07-30T04:25:52;95598.81;;;38.40;32.32
77077;BME280;66003;52.286;104.306;2023-07-30T04:28:18;95597.00;;;38.51;32.02
77077;BME280;66003;52.286;104.306;2023-07-30T04:30:44;95589.09;;;38.50;31.45
77077;BME280;66003;52.286;104.306;2023-07-30T04:33:13;95610.03;;;38.69;31.83
77077;BME280;66003;52.286;104.306;2023-07-30T04:35:40;95608.09;;;38.90;30.83
77077;BME280;66003;52.286;104.306;2023-07-30T04:38:07;95597.59;;;38.99;30.91
77077;BME280;66003;52.286;104.306;2023-07-30T04:40:33;95614.38;;;38.99;30.75
77077;BME280;66003;52.286;104.306;2023-07-30T04:42:59;95613.09;;;38.86;30.64
77077;BME280;66003;52.286;104.306;2023-07-30T04:45:25;95613.50;;;38.64;30.82
77077;BME280;66003;52.286;104.306;2023-07-30T04:47:52;95618.31;;;38.63;31.16
77077;BME280;66003;52.286;104.306;2023-07-30T04:50:18;95614.44;;;38.61;31.48
77077;BME280;66003;52.286;104.306;2023-07-30T04:52:44;95623.72;;;38.82;31.19
77077;BME280;66003;52.286;104.306;2023-07-30T04:55:10;95609.56;;;39.00;30.76
77077;BME280;66003;52.286;104.306;2023-07-30T04:57:36;95615.97;;;39.21;30.87
77077;BME280;66003;52.286;104.306;2023-07-30T05:00:03;95619.81;;;39.38;31.13
77077;BME280;66003;52.286;104.306;2023-07-30T05:02:31;95606.28;;;39.51;30.82
77077;BME280;66003;52.286;104.306;2023-07-30T05:04:58;95604.56;;;39.39;30.67
77077;BME280;66003;52.286;104.306;2023-07-30T05:07:24;95597.47;;;39.23;30.44
77077;BME280;66003;52.286;104.306;2023-07-30T05:09:50;95599.69;;;39.19;30.85
77077;BME280;66003;52.286;104.306;2023-07-30T05:12:16;95594.41;;;39.07;30.83
77077;BME280;66003;52.286;104.306;2023-07-30T05:14:42;95606.34;;;39.07;30.86
77077;BME280;66003;52.286;104.306;2023-07-30T05:17:09;95608.66;;;39.09;31.32
77077;BME280;66003;52.286;104.306;2023-07-30T05:19:35;95627.81;;;39.30;30.91
77077;BME280;66003;52.286;104.306;2023-07-30T05:22:01;95618.25;;;39.52;31.42
77077;BME280;66003;52.286;104.306;2023-07-30T05:24:27;95616.38;;;39.28;30.53
77077;BME280;66003;52.286;104.306;2023-07-30T05:26:54;95598.19;;;38.74;30.89
77077;BME280;66003;52.286;104.306;2023-07-30T05:29:20;95605.63;;;38.24;31.92
77077;BME280;66003;52.286;104.306;2023-07-30T05:31:46;95607.44;;;37.88;32.57
77077;BME280;66003;52.286;104.306;2023-07-30T05:34:12;95603.41;;;37.66;33.00
77077;BME280;66003;52.286;104.306;2023-07-30T05:36:38;95605.00;;;37.81;33.75
77077;BME280;66003;52.286;104.306;2023-07-30T05:39:05;95616.88;;;38.15;32.46
77077;BME280;66003;52.286;104.306;2023-07-30T05:41:31;95610.81;;;38.16;32.54
77077;BME280;66003;52.286;104.306;2023-07-30T05:43:57;95616.91;;;38.06;32.36
77077;BME280;66003;52.286;104.306;2023-07-30T05:46:23;95620.56;;;37.73;32.19
77077;BME280;66003;52.286;104.306;2023-07-30T05:48:49;95616.03;;;37.52;32.92
77077;BME280;66003;52.286;104.306;2023-07-30T05:51:15;95616.72;;;37.38;32.84
77077;BME280;66003;52.286;104.306;2023-07-30T05:53:42;95617.22;;;37.60;33.39
77077;BME280;66003;52.286;104.306;2023-07-30T05:56:08;95624.06;;;37.83;33.11
77077;BME280;66003;52.286;104.306;2023-07-30T05:58:34;95627.25;;;37.90;32.68
77077;BME280;66003;52.286;104.306;2023-07-30T06:01:00;95624.16;;;37.88;32.85
77077;BME280;66003;52.286;104.306;2023-07-30T06:03:27;95620.44;;;37.91;32.36
77077;BME280;66003;52.286;104.306;2023-07-30T06:05:53;95632.13;;;38.05;32.71
77077;BME280;66003;52.286;104.306;2023-07-30T06:08:19;95620.88;;;37.99;32.28
77077;BME280;66003;52.286;104.306;2023-07-30T06:10:45;95604.41;;;37.77;32.74
77077;BME280;66003;52.286;104.306;2023-07-30T06:13:12;95611.13;;;37.71;33.41
77077;BME280;66003;52.286;104.306;2023-07-30T06:15:38;95608.34;;;37.71;33.32
77077;BME280;66003;52.286;104.306;2023-07-30T06:18:05;95606.09;;;37.84;33.41
77077;BME280;66003;52.286;104.306;2023-07-30T06:20:31;95595.00;;;37.75;33.54
77077;BME280;66003;52.286;104.306;2023-07-30T06:22:57;95577.47;;;37.50;33.02
77077;BME280;66003;52.286;104.306;2023-07-30T06:25:23;95593.41;;;37.26;33.33
77077;BME280;66003;52.286;104.306;2023-07-30T06:27:49;95590.47;;;37.20;33.38
77077;BME280;66003;52.286;104.306;2023-07-30T06:30:15;95605.28;;;37.36;33.62
77077;BME280;66003;52.286;104.306;2023-07-30T06:32:42;95608.84;;;37.36;33.55
77077;BME280;66003;52.286;104.306;2023-07-30T06:35:08;95594.53;;;37.10;34.34
77077;BME280;66003;52.286;104.306;2023-07-30T06:37:34;95608.06;;;36.84;34.34
77077;BME280;66003;52.286;104.306;2023-07-30T06:40:00;95609.81;;;36.73;34.77
77077;BME280;66003;52.286;104.306;2023-07-30T06:42:30;95604.13;;;36.49;35.39
77077;BME280;66003;52.286;104.306;2023-07-30T06:44:56;95610.63;;;36.55;35.02
77077;BME280;66003;52.286;104.306;2023-07-30T06:47:22;95613.53;;;36.61;34.98
77077;BME280;66003;52.286;104.306;2023-07-30T06:49:48;95607.25;;;37.02;34.56
77077;BME280;66003;52.286;104.306;2023-07-30T06:52:14;95610.63;;;37.15;34.25
77077;BME280;66003;52.286;104.306;2023-07-30T06:54:40;95605.84;;;37.16;33.91
77077;BME280;66003;52.286;104.306;2023-07-30T06:57:07;95606.13;;;37.18;33.79
77077;BME280;66003;52.286;104.306;2023-07-30T06:59:33;95616.63;;;37.23;34.51
77077;BME280;66003;52.286;104.306;2023-07-30T07:02:00;95620.28;;;37.38;34.05
77077;BME280;66003;52.286;104.306;2023-07-30T07:04:27;95600.72;;;37.47;33.64
77077;BME280;66003;52.286;104.306;2023-07-30T07:06:53;95598.59;;;37.66;34.14
77077;BME280;66003;52.286;104.306;2023-07-30T07:09:19;95583.59;;;37.31;33.78
77077;BME280;66003;52.286;104.306;2023-07-30T07:11:45;95580.69;;;36.92;34.18
77077;BME280;66003;52.286;104.306;2023-07-30T07:14:11;95589.53;;;36.72;34.24
77077;BME280;66003;52.286;104.306;2023-07-30T07:16:38;95575.78;;;36.60;34.61
77077;BME280;66003;52.286;104.306;2023-07-30T07:19:04;95564.34;;;36.67;34.55
77077;BME280;66003;52.286;104.306;2023-07-30T07:21:31;95559.16;;;36.05;35.71
77077;BME280;66003;52.286;104.306;2023-07-30T07:23:57;95578.47;;;35.90;36.45
77077;BME280;66003;52.286;104.306;2023-07-30T07:26:23;95592.88;;;35.98;36.35
77077;BME280;66003;52.286;104.306;2023-07-30T07:28:49;95595.66;;;36.34;35.69
77077;BME280;66003;52.286;104.306;2023-07-30T07:31:15;95605.66;;;36.50;35.44
77077;BME280;66003;52.286;104.306;2023-07-30T07:33:41;95597.78;;;36.48;35.46
77077;BME280;66003;52.286;104.306;2023-07-30T07:36:09;95588.19;;;36.49;35.78
77077;BME280;66003;52.286;104.306;2023-07-30T07:38:35;95603.34;;;36.58;35.43
77077;BME280;66003;52.286;104.306;2023-07-30T07:41:02;95606.72;;;36.80;35.46
77077;BME280;66003;52.286;104.306;2023-07-30T07:43:28;95606.03;;;37.03;34.87
77077;BME280;66003;52.286;104.306;2023-07-30T07:45:54;95618.59;;;37.32;34.90
77077;BME280;66003;52.286;104.306;2023-07-30T07:48:20;95591.72;;;37.52;34.37
77077;BME280;66003;52.286;104.306;2023-07-30T07:50:47;95589.47;;;37.66;34.08
77077;BME280;66003;52.286;104.306;2023-07-30T07:53:13;95602.59;;;37.74;33.21
77077;BME280;66003;52.286;104.306;2023-07-30T07:55:39;95603.16;;;37.78;33.69
77077;BME280;66003;52.286;104.306;2023-07-30T07:58:05;95621.69;;;37.90;32.98
77077;BME280;66003;52.286;104.306;2023-07-30T08:00:31;95631.06;;;37.78;33.50
77077;BME280;66003;52.286;104.306;2023-07-30T08:03:00;95621.34;;;37.74;33.28
77077;BME280;66003;52.286;104.306;2023-07-30T08:05:27;95635.81;;;37.54;33.42
77077;BME280;66003;52.286;104.306;2023-07-30T08:07:53;95630.09;;;37.57;32.84
77077;BME280;66003;52.286;104.306;2023-07-30T08:10:19;95623.03;;;37.47;32.96
77077;BME280;66003;52.286;104.306;2023-07-30T08:12:45;95636.03;;;37.50;32.96
77077;BME280;66003;52.286;104.306;2023-07-30T08:15:14;95642.53;;;37.47;33.31
77077;BME280;66003;52.286;104.306;2023-07-30T08:17:42;95637.56;;;37.51;33.33
77077;BME280;66003;52.286;104.306;2023-07-30T08:20:08;95633.66;;;37.25;33.61
77077;BME280;66003;52.286;104.306;2023-07-30T08:22:34;95644.81;;;37.25;33.30
77077;BME280;66003;52.286;104.306;2023-07-30T08:25:01;95624.38;;;37.19;33.43
77077;BME280;66003;52.286;104.306;2023-07-30T08:27:30;95609.84;;;37.06;33.02
77077;BME280;66003;52.286;104.306;2023-07-30T08:29:56;95595.28;;;36.69;33.61
77077;BME280;66003;52.286;104.306;2023-07-30T08:32:22;95608.47;;;36.41;34.57
77077;BME280;66003;52.286;104.306;2023-07-30T08:34:48;95606.31;;;36.36;34.83
77077;BME280;66003;52.286;104.306;2023-07-30T08:37:15;95596.09;;;36.14;34.77
77077;BME280;66003;52.286;104.306;2023-07-30T08:39:41;95619.91;;;36.15;35.17
77077;BME280;66003;52.286;104.306;2023-07-30T08:42:07;95632.72;;;36.13;35.54
77077;BME280;66003;52.286;104.306;2023-07-30T08:44:34;95637.97;;;36.02;35.86
77077;BME280;66003;52.286;104.306;2023-07-30T08:47:00;95621.22;;;35.65;36.48
77077;BME280;66003;52.286;104.306;2023-07-30T08:49:26;95612.59;;;35.63;36.55
77077;BME280;66003;52.286;104.306;2023-07-30T08:51:59;95586.16;;;35.50;37.10
77077;BME280;66003;52.286;104.306;2023-07-30T08:54:29;95577.75;;;35.31;37.51
77077;BME280;66003;52.286;104.306;2023-07-30T08:56:56;95572.44;;;35.15;37.75
77077;BME280;66003;52.286;104.306;2023-07-30T08:59:24;95556.38;;;35.10;37.45
77077;BME280;66003;52.286;104.306;2023-07-30T09:01:53;95552.47;;;34.98;37.35
77077;BME280;66003;52.286;104.306;2023-07-30T09:04:21;95542.22;;;34.77;37.82
77077;BME280;66003;52.286;104.306;2023-07-30T09:06:50;95534.25;;;34.57;37.82
77077;BME280;66003;52.286;104.306;2023-07-30T09:09:16;95554.97;;;34.44;38.41
77077;BME280;66003;52.286;104.306;2023-07-30T09:11:42;95564.97;;;34.19;38.69
77077;BME280;66003;52.286;104.306;2023-07-30T09:14:09;95560.00;;;34.14;38.48
77077;BME280;66003;52.286;104.306;2023-07-30T09:16:36;95564.31;;;34.15;38.48
77077;BME280;66003;52.286;104.306;2023-07-30T09:19:02;95580.22;;;34.36;38.40
77077;BME280;66003;52.286;104.306;2023-07-30T09:21:33;95580.72;;;34.44;37.52
77077;BME280;66003;52.286;104.306;2023-07-30T09:24:03;95584.06;;;34.61;36.67
77077;BME280;66003;52.286;104.306;2023-07-30T09:26:46;95596.00;;;35.01;36.90
77077;BME280;66003;52.286;104.306;2023-07-30T09:29:12;95579.00;;;34.90;36.08
77077;BME280;66003;52.286;104.306;2023-07-30T09:31:50;95575.34;;;35.11;36.21
77077;BME280;66003;52.286;104.306;2023-07-30T09:34:24;95553.53;;;34.92;36.61
77077;BME280;66003;52.286;104.306;2023-07-30T09:36:52;95564.31;;;34.81;36.67
77077;BME280;66003;52.286;104.306;2023-07-30T09:39:25;95555.84;;;34.93;36.78
77077;BME280;66003;52.286;104.306;2023-07-30T09:41:59;95539.19;;;34.62;36.83
77077;BME280;66003;52.286;104.306;2023-07-30T09:44:25;95542.81;;;34.50;37.47
77077;BME280;66003;52.286;104.306;2023-07-30T09:46:52;95523.84;;;34.49;37.32
77077;BME280;66003;52.286;104.306;2023-07-30T09:49:19;95529.53;;;34.23;37.96
77077;BME280;66003;52.286;104.306;2023-07-30T09:51:47;95537.31;;;34.28;38.64
77077;BME280;66003;52.286;104.306;2023-07-30T09:54:14;95551.63;;;34.27;38.77
77077;BME280;66003;52.286;104.306;2023-07-30T09:56:41;95580.72;;;34.22;39.56
77077;BME280;66003;52.286;104.306;2023-07-30T09:59:09;95588.13;;;34.25;39.89
77077;BME280;66003;52.286;104.306;2023-07-30T10:01:43;95575.09;;;34.13;39.57
77077;BME280;66003;52.286;104.306;2023-07-30T10:04:10;95570.59;;;34.06;40.44
77077;BME280;66003;52.286;104.306;2023-07-30T10:06:44;95563.31;;;34.22;39.98
77077;BME280;66003;52.286;104.306;2023-07-30T10:09:12;95569.69;;;34.10;40.41
77077;BME280;66003;52.286;104.306;2023-07-30T10:11:42;95573.34;;;34.06;40.85
77077;BME280;66003;52.286;104.306;2023-07-30T10:14:09;95584.38;;;33.97;40.81
77077;BME280;66003;52.286;104.306;2023-07-30T10:16:35;95608.13;;;33.98;41.21
77077;BME280;66003;52.286;104.306;2023-07-30T10:19:01;95607.53;;;34.03;41.19
77077;BME280;66003;52.286;104.306;2023-07-30T10:21:28;95612.50;;;34.09;40.63
77077;BME280;66003;52.286;104.306;2023-07-30T10:24:02;95625.13;;;34.22;40.63
77077;BME280;66003;52.286;104.306;2023-07-30T10:26:33;95617.06;;;34.02;40.39
77077;BME280;66003;52.286;104.306;2023-07-30T10:29:16;95607.03;;;34.18;40.04
77077;BME280;66003;52.286;104.306;2023-07-30T10:31:54;95610.44;;;34.00;40.70
77077;BME280;66003;52.286;104.306;2023-07-30T10:34:44;95601.19;;;33.81;41.19
77077;BME280;66003;52.286;104.306;2023-07-30T10:37:10;95587.31;;;33.34;41.94
77077;BME280;66003;52.286;104.306;2023-07-30T10:39:36;95599.72;;;33.29;41.69
77077;BME280;66003;52.286;104.306;2023-07-30T10:42:02;95595.59;;;33.21;42.15
77077;BME280;66003;52.286;104.306;2023-07-30T10:44:31;95573.88;;;33.20;42.06
77077;BME280;66003;52.286;104.306;2023-07-30T10:46:59;95583.31;;;32.97;42.20
77077;BME280;66003;52.286;104.306;2023-07-30T10:49:26;95588.31;;;32.89;42.47
77077;BME280;66003;52.286;104.306;2023-07-30T10:51:53;95599.59;;;32.82;43.14
77077;BME280;66003;52.286;104.306;2023-07-30T10:54:20;95604.47;;;32.78;43.19
77077;BME280;66003;52.286;104.306;2023-07-30T10:56:46;95603.66;;;32.65;43.66
77077;BME280;66003;52.286;104.306;2023-07-30T10:59:13;95587.16;;;32.61;43.38
77077;BME280;66003;52.286;104.306;2023-07-30T11:01:42;95600.97;;;32.61;43.86
77077;BME280;66003;52.286;104.306;2023-07-30T11:04:17;95587.03;;;32.52;44.19
77077;BME280;66003;52.286;104.306;2023-07-30T11:06:48;95587.25;;;32.45;44.23
77077;BME280;66003;52.286;104.306;2023-07-30T11:09:25;95590.75;;;32.46;44.38
77077;BME280;66003;52.286;104.306;2023-07-30T11:11:53;95585.34;;;32.13;45.17
77077;BME280;66003;52.286;104.306;2023-07-30T11:14:22;95587.47;;;32.09;45.13
77077;BME280;66003;52.286;104.306;2023-07-30T11:16:53;95581.75;;;32.00;45.58
77077;BME280;66003;52.286;104.306;2023-07-30T11:19:20;95593.25;;;31.99;45.45
77077;BME280;66003;52.286;104.306;2023-07-30T11:21:47;95579.94;;;31.81;45.88
77077;BME280;66003;52.286;104.306;2023-07-30T11:24:13;95579.00;;;31.71;46.09
77077;BME280;66003;52.286;104.306;2023-07-30T11:26:40;95580.66;;;31.69;46.17
77077;BME280;66003;52.286;104.306;2023-07-30T11:29:19;95579.16;;;31.80;45.31
77077;BME280;66003;52.286;104.306;2023-07-30T11:31:47;95564.59;;;31.64;46.93
77077;BME280;66003;52.286;104.306;2023-07-30T11:34:14;95556.19;;;31.51;47.01
77077;BME280;66003;52.286;104.306;2023-07-30T11:36:41;95565.97;;;31.55;46.77
77077;BME280;66003;52.286;104.306;2023-07-30T11:39:09;95570.28;;;31.56;47.11
77077;BME280;66003;52.286;104.306;2023-07-30T11:41:36;95570.63;;;31.58;46.70
77077;BME280;66003;52.286;104.306;2023-07-30T11:44:04;95555.47;;;31.50;47.21
77077;BME280;66003;52.286;104.306;2023-07-30T11:46:31;95565.19;;;31.55;46.93
77077;BME280;66003;52.286;104.306;2023-07-30T11:49:14;95561.56;;;31.74;47.29
77077;BME280;66003;52.286;104.306;2023-07-30T11:51:40;95561.22;;;31.56;46.98
77077;BME280;66003;52.286;104.306;2023-07-30T11:54:17;95545.00;;;31.42;47.93
77077;BME280;66003;52.286;104.306;2023-07-30T11:56:43;95558.09;;;31.54;47.45
77077;BME280;66003;52.286;104.306;2023-07-30T11:59:10;95560.09;;;31.53;47.02
77077;BME280;66003;52.286;104.306;2023-07-30T12:01:36;95569.59;;;31.52;47.89
77077;BME280;66003;52.286;104.306;2023-07-30T12:04:04;95564.69;;;31.44;47.91
77077;BME280;66003;52.286;104.306;2023-07-30T12:06:44;95553.63;;;31.44;46.62
77077;BME280;66003;52.286;104.306;2023-07-30T12:09:25;95569.28;;;31.50;47.71
77077;BME280;66003;52.286;104.306;2023-07-30T12:11:56;95563.41;;;31.32;47.49
77077;BME280;66003;52.286;104.306;2023-07-30T12:14:25;95556.75;;;31.30;47.33
77077;BME280;66003;52.286;104.306;2023-07-30T12:16:56;95560.56;;;31.19;47.82
77077;BME280;66003;52.286;104.306;2023-07-30T12:19:22;95559.63;;;31.26;47.69
77077;BME280;66003;52.286;104.306;2023-07-30T12:21:49;95550.56;;;31.09;48.20
77077;BME280;66003;52.286;104.306;2023-07-30T12:24:15;95569.38;;;31.14;48.53
77077;BME280;66003;52.286;104.306;2023-07-30T12:26:41;95563.84;;;31.14;48.22
77077;BME280;66003;52.286;104.306;2023-07-30T12:29:07;95556.91;;;30.90;49.40
77077;BME280;66003;52.286;104.306;2023-07-30T12:31:33;95550.34;;;30.84;49.14
77077;BME280;66003;52.286;104.306;2023-07-30T12:33:59;95555.09;;;30.83;49.65
77077;BME280;66003;52.286;104.306;2023-07-30T12:36:26;95549.31;;;30.78;49.72
77077;BME280;66003;52.286;104.306;2023-07-30T12:38:53;95552.44;;;30.80;49.69
77077;BME280;66003;52.286;104.306;2023-07-30T12:41:20;95547.59;;;30.84;49.57
77077;BME280;66003;52.286;104.306;2023-07-30T12:43:53;95556.63;;;30.84;49.56